Wetterdaten: Woche 28.09.09 - 04.10.09 (KW40)
Datum Zeit Temperatur Luftfeuchte Luftdruck Niederschlag Wind Richtung Sonnenschein Solar Taupunkt Windchill Windben
28.09.2009 00:00 13.3 C 90 % 1023.9 hPa 0.0 l/m 1.3 km/h (1 Bft) O-SO 0.00 h 0 W/m 11.7 C 13.3 C 2.2 km/h (1 Bft)
28.09.2009 01:00 12.5 C 92 % 1023.6 hPa 0.0 l/m 1.2 km/h (1 Bft) O-SO 0.00 h 0 W/m 11.2 C 12.5 C 2.1 km/h (1 Bft)
28.09.2009 02:00 12.0 C 94 % 1023.5 hPa 0.0 l/m 0.6 km/h (0 Bft) O-SO 0.00 h 0 W/m 11.1 C 12.0 C 1.5 km/h (1 Bft)
28.09.2009 03:00 11.5 C 95 % 1023.4 hPa 0.0 l/m 0.8 km/h (0 Bft) O-SO 0.00 h 0 W/m 10.7 C 11.5 C 1.7 km/h (1 Bft)
28.09.2009 04:00 11.2 C 96 % 1023.4 hPa 0.0 l/m 0.2 km/h (0 Bft) O-SO 0.00 h 0 W/m 10.5 C 11.2 C 1.0 km/h (0 Bft)
28.09.2009 05:00 10.6 C 96 % 1023.6 hPa 0.0 l/m 0.2 km/h (0 Bft) O-SO 0.00 h 0 W/m 10.0 C 10.6 C 0.6 km/h (0 Bft)
28.09.2009 06:00 10.5 C 96 % 1023.8 hPa 0.0 l/m 1.1 km/h (1 Bft) O-SO 0.00 h 0 W/m 9.9 C 10.5 C 1.9 km/h (1 Bft)
28.09.2009 07:00 10.3 C 97 % 1024.3 hPa 0.0 l/m 0.6 km/h (0 Bft) O-SO 0.00 h 12 W/m 9.9 C 10.3 C 1.4 km/h (1 Bft)
28.09.2009 08:00 10.7 C 98 % 1024.7 hPa 0.0 l/m 0.2 km/h (0 Bft) O-SO 0.00 h 51 W/m 10.4 C 10.7 C 0.9 km/h (0 Bft)
28.09.2009 09:00 11.5 C 98 % 1024.9 hPa 0.0 l/m 0.2 km/h (0 Bft) O-SO 0.05 h 140 W/m 11.2 C 11.5 C 1.0 km/h (0 Bft)
28.09.2009 10:00 13.1 C 96 % 1024.9 hPa 0.0 l/m 0.3 km/h (0 Bft) O-SO 0.43 h 263 W/m 12.5 C 13.1 C 1.4 km/h (1 Bft)
28.09.2009 11:00 16.3 C 84 % 1024.4 hPa 0.0 l/m 0.6 km/h (0 Bft) SW 0.92 h 456 W/m 13.5 C 16.3 C 2.0 km/h (1 Bft)
28.09.2009 12:00 19.1 C 72 % 1023.7 hPa 0.0 l/m 1.8 km/h (1 Bft) W-SW 1.00 h 560 W/m 14.0 C 19.1 C 3.8 km/h (1 Bft)
28.09.2009 13:00 21.0 C 66 % 1022.9 hPa 0.0 l/m 1.7 km/h (1 Bft) W-NW 1.00 h 579 W/m 14.3 C 21.0 C 3.8 km/h (1 Bft)
28.09.2009 14:00 22.2 C 59 % 1022.1 hPa 0.0 l/m 1.1 km/h (1 Bft) O-SO 1.00 h 546 W/m 13.9 C 22.2 C 3.1 km/h (1 Bft)
28.09.2009 15:00 23.7 C 54 % 1021.4 hPa 0.0 l/m 3.0 km/h (1 Bft) W 1.00 h 493 W/m 13.8 C 23.7 C 5.2 km/h (1 Bft)
28.09.2009 16:00 24.0 C 49 % 1020.9 hPa 0.0 l/m 5.8 km/h (2 Bft) W 1.00 h 375 W/m 12.7 C 24.0 C 9.6 km/h (2 Bft)
28.09.2009 17:00 23.2 C 52 % 1020.8 hPa 0.0 l/m 7.0 km/h (2 Bft) W 0.95 h 218 W/m 12.8 C 23.2 C 11.1 km/h (2 Bft)
28.09.2009 18:00 21.7 C 56 % 1020.6 hPa 0.0 l/m 2.1 km/h (1 Bft) W 0.02 h 30 W/m 12.5 C 21.7 C 4.5 km/h (1 Bft)
28.09.2009 19:00 19.5 C 61 % 1021.2 hPa 0.0 l/m 1.9 km/h (1 Bft) O 0.03 h 10 W/m 11.9 C 19.5 C 3.4 km/h (1 Bft)
28.09.2009 20:00 16.8 C 73 % 1021.4 hPa 0.0 l/m 3.6 km/h (1 Bft) O-SO 0.00 h 0 W/m 11.9 C 16.8 C 5.3 km/h (1 Bft)
28.09.2009 21:00 15.0 C 79 % 1022.0 hPa 0.0 l/m 1.7 km/h (1 Bft) O-SO 0.00 h 0 W/m 11.4 C 15.0 C 3.0 km/h (1 Bft)
28.09.2009 22:00 13.6 C 84 % 1022.1 hPa 0.0 l/m 1.2 km/h (1 Bft) O 0.00 h 0 W/m 10.9 C 13.6 C 2.2 km/h (1 Bft)
28.09.2009 23:00 12.5 C 87 % 1022.0 hPa 0.0 l/m 1.0 km/h (0 Bft) O 0.00 h 0 W/m 10.4 C 12.5 C 2.1 km/h (1 Bft)
29.09.2009 00:00 11.7 C 90 % 1021.8 hPa 0.0 l/m 1.4 km/h (1 Bft) O-SO 0.00 h 0 W/m 10.1 C 11.7 C 2.7 km/h (1 Bft)
29.09.2009 01:00 11.2 C 92 % 1021.6 hPa 0.0 l/m 1.0 km/h (0 Bft) O-SO 0.00 h 0 W/m 10.0 C 11.2 C 2.3 km/h (1 Bft)
29.09.2009 02:00 10.7 C 93 % 1021.6 hPa 0.0 l/m 0.9 km/h (0 Bft) O-SO 0.00 h 0 W/m 9.6 C 10.7 C 1.8 km/h (1 Bft)
29.09.2009 03:00 10.0 C 94 % 1021.3 hPa 0.0 l/m 0.5 km/h (0 Bft) O-SO 0.00 h 0 W/m 9.1 C 10.0 C 1.2 km/h (1 Bft)
29.09.2009 04:00 9.5 C 95 % 1021.2 hPa 0.0 l/m 0.6 km/h (0 Bft) O 0.00 h 0 W/m 8.8 C 9.5 C 1.4 km/h (1 Bft)
29.09.2009 05:00 9.1 C 96 % 1021.4 hPa 0.0 l/m 0.3 km/h (0 Bft) O 0.00 h 0 W/m 8.5 C 9.1 C 0.7 km/h (0 Bft)
29.09.2009 06:00 9.2 C 97 % 1021.3 hPa 0.0 l/m 0.0 km/h (0 Bft) N 0.00 h 0 W/m 8.8 C 9.2 C 0.3 km/h (0 Bft)
29.09.2009 07:00 9.2 C 98 % 1021.4 hPa 0.0 l/m 0.6 km/h (0 Bft) O 0.00 h 14 W/m 8.9 C 9.2 C 1.6 km/h (1 Bft)
29.09.2009 08:00 9.4 C 98 % 1021.9 hPa 0.2 l/m 0.1 km/h (0 Bft) O 0.00 h 52 W/m 9.2 C 9.4 C 0.8 km/h (0 Bft)
29.09.2009 09:00 10.5 C 99 % 1022.3 hPa 0.0 l/m 0.4 km/h (0 Bft) S-SO 0.00 h 110 W/m 10.3 C 10.5 C 1.4 km/h (1 Bft)
29.09.2009 10:00 11.5 C 99 % 1022.4 hPa 0.0 l/m 0.7 km/h (0 Bft) SO 0.00 h 184 W/m 11.4 C 11.5 C 2.2 km/h (1 Bft)
29.09.2009 11:00 15.5 C 89 % 1021.8 hPa 0.0 l/m 1.1 km/h (1 Bft) O-SO 0.98 h 492 W/m 13.6 C 15.5 C 2.9 km/h (1 Bft)
29.09.2009 12:00 19.9 C 63 % 1020.5 hPa 0.0 l/m 4.6 km/h (1 Bft) W 0.98 h 564 W/m 12.5 C 19.9 C 8.0 km/h (2 Bft)
29.09.2009 13:00 21.3 C 52 % 1019.6 hPa 0.0 l/m 6.8 km/h (2 Bft) W 0.98 h 564 W/m 11.1 C 21.3 C 11.3 km/h (2 Bft)
29.09.2009 14:00 22.5 C 44 % 1018.8 hPa 0.0 l/m 6.9 km/h (2 Bft) W-SW 1.00 h 579 W/m 9.7 C 22.5 C 11.2 km/h (2 Bft)
29.09.2009 15:00 22.9 C 42 % 1018.4 hPa 0.0 l/m 8.5 km/h (2 Bft) W-SW 1.00 h 482 W/m 9.3 C 22.9 C 13.2 km/h (3 Bft)
29.09.2009 16:00 23.3 C 39 % 1018.0 hPa 0.0 l/m 8.5 km/h (2 Bft) W 1.00 h 376 W/m 8.6 C 23.3 C 13.7 km/h (3 Bft)
29.09.2009 17:00 22.6 C 38 % 1017.8 hPa 0.0 l/m 8.0 km/h (2 Bft) W-SW 0.93 h 214 W/m 7.6 C 22.6 C 13.4 km/h (3 Bft)
29.09.2009 18:00 21.2 C 42 % 1017.8 hPa 0.0 l/m 1.8 km/h (1 Bft) W-SW 0.00 h 25 W/m 7.8 C 21.2 C 3.7 km/h (1 Bft)
29.09.2009 19:00 19.5 C 49 % 1018.5 hPa 0.0 l/m 0.3 km/h (0 Bft) N-NW 0.02 h 8 W/m 8.3 C 19.5 C 1.5 km/h (1 Bft)
29.09.2009 20:00 16.6 C 62 % 1019.1 hPa 0.0 l/m 2.5 km/h (1 Bft) O-SO 0.00 h 0 W/m 9.1 C 16.6 C 4.2 km/h (1 Bft)
29.09.2009 21:00 14.3 C 71 % 1019.7 hPa 0.0 l/m 2.3 km/h (1 Bft) O 0.00 h 0 W/m 9.2 C 14.3 C 3.8 km/h (1 Bft)
29.09.2009 22:00 12.8 C 78 % 1019.8 hPa 0.0 l/m 2.9 km/h (1 Bft) O 0.00 h 0 W/m 9.1 C 12.8 C 4.0 km/h (1 Bft)
29.09.2009 23:00 11.8 C 83 % 1019.5 hPa 0.0 l/m 0.7 km/h (0 Bft) O 0.00 h 0 W/m 9.0 C 11.8 C 1.4 km/h (1 Bft)
30.09.2009 00:00 11.1 C 86 % 1019.3 hPa 0.0 l/m 0.6 km/h (0 Bft) O 0.00 h 0 W/m 8.8 C 11.1 C 1.6 km/h (1 Bft)
30.09.2009 01:00 10.7 C 88 % 1019.1 hPa 0.0 l/m 0.2 km/h (0 Bft) O 0.00 h 0 W/m 8.9 C 10.7 C 0.8 km/h (0 Bft)
30.09.2009 02:00 10.1 C 90 % 1019.1 hPa 0.0 l/m 0.6 km/h (0 Bft) O 0.00 h 0 W/m 8.6 C 10.1 C 1.4 km/h (1 Bft)
30.09.2009 03:00 9.7 C 92 % 1018.9 hPa 0.0 l/m 0.3 km/h (0 Bft) O 0.00 h 0 W/m 8.5 C 9.7 C 1.1 km/h (0 Bft)
30.09.2009 04:00 9.2 C 93 % 1018.4 hPa 0.0 l/m 0.9 km/h (0 Bft) O 0.00 h 0 W/m 8.1 C 9.2 C 2.0 km/h (1 Bft)
30.09.2009 05:00 8.8 C 94 % 1018.4 hPa 0.0 l/m 0.6 km/h (0 Bft) O 0.00 h 0 W/m 8.0 C 8.8 C 1.1 km/h (1 Bft)
30.09.2009 06:00 8.4 C 95 % 1018.5 hPa 0.0 l/m 1.0 km/h (0 Bft) O 0.00 h 0 W/m 7.7 C 8.4 C 1.6 km/h (1 Bft)
30.09.2009 07:00 8.0 C 96 % 1018.8 hPa 0.0 l/m 0.2 km/h (0 Bft) O 0.03 h 18 W/m 7.4 C 8.0 C 0.7 km/h (0 Bft)
30.09.2009 08:00 8.7 C 97 % 1019.2 hPa 0.0 l/m 0.0 km/h (0 Bft) N 0.20 h 84 W/m 8.3 C 8.7 C 0.2 km/h (0 Bft)
30.09.2009 09:00 11.5 C 92 % 1019.1 hPa 0.0 l/m 0.4 km/h (0 Bft) N-NO 0.85 h 230 W/m 10.2 C 11.5 C 1.3 km/h (1 Bft)
30.09.2009 10:00 14.6 C 78 % 1018.6 hPa 0.0 l/m 1.5 km/h (1 Bft) N-NW 1.00 h 373 W/m 10.9 C 14.6 C 3.2 km/h (1 Bft)
30.09.2009 11:00 17.3 C 70 % 1018.0 hPa 0.0 l/m 2.0 km/h (1 Bft) W-NW 1.00 h 488 W/m 11.7 C 17.3 C 4.1 km/h (1 Bft)
30.09.2009 12:00 19.0 C 64 % 1017.3 hPa 0.0 l/m 2.7 km/h (1 Bft) SO 1.00 h 553 W/m 12.1 C 19.0 C 5.5 km/h (1 Bft)
30.09.2009 13:00 20.3 C 59 % 1016.7 hPa 0.0 l/m 3.3 km/h (1 Bft) O-SO 1.00 h 579 W/m 12.0 C 20.3 C 6.4 km/h (2 Bft)
30.09.2009 14:00 21.1 C 56 % 1015.7 hPa 0.0 l/m 3.7 km/h (1 Bft) O-SO 1.00 h 549 W/m 12.0 C 21.1 C 5.4 km/h (1 Bft)
30.09.2009 15:00 22.0 C 54 % 1014.9 hPa 0.0 l/m 2.0 km/h (1 Bft) W-SW 0.92 h 428 W/m 12.2 C 22.0 C 3.9 km/h (1 Bft)
30.09.2009 16:00 22.2 C 51 % 1014.8 hPa 0.0 l/m 2.0 km/h (1 Bft) W-SW 0.85 h 324 W/m 11.7 C 22.2 C 4.0 km/h (1 Bft)
30.09.2009 17:00 21.9 C 52 % 1014.5 hPa 0.0 l/m 0.6 km/h (0 Bft) W-NW 0.53 h 172 W/m 11.6 C 21.9 C 2.0 km/h (1 Bft)
30.09.2009 18:00 21.2 C 54 % 1014.2 hPa 0.0 l/m 2.4 km/h (1 Bft) O-SO 0.12 h 47 W/m 11.6 C 21.2 C 3.7 km/h (1 Bft)
30.09.2009 19:00 19.2 C 63 % 1014.2 hPa 0.0 l/m 3.9 km/h (1 Bft) O-SO 0.00 h 8 W/m 12.0 C 19.2 C 5.4 km/h (1 Bft)
30.09.2009 20:00 17.1 C 74 % 1014.5 hPa 0.0 l/m 2.1 km/h (1 Bft) O-SO 0.00 h 0 W/m 12.4 C 17.1 C 3.5 km/h (1 Bft)
30.09.2009 21:00 15.3 C 80 % 1014.6 hPa 0.0 l/m 1.8 km/h (1 Bft) O 0.00 h 0 W/m 11.9 C 15.3 C 2.9 km/h (1 Bft)
30.09.2009 22:00 13.7 C 86 % 1014.6 hPa 0.0 l/m 0.9 km/h (0 Bft) O 0.00 h 0 W/m 11.4 C 13.7 C 2.0 km/h (1 Bft)
30.09.2009 23:00 13.0 C 89 % 1014.8 hPa 0.0 l/m 2.0 km/h (1 Bft) O 0.00 h 0 W/m 11.2 C 13.0 C 3.1 km/h (1 Bft)
01.10.2009 00:00 12.6 C 91 % 1014.5 hPa 0.0 l/m 0.5 km/h (0 Bft) O 0.00 h 0 W/m 11.1 C 12.6 C 1.2 km/h (1 Bft)
01.10.2009 01:00 11.7 C 92 % 1014.4 hPa 0.0 l/m 0.7 km/h (0 Bft) O 0.00 h 0 W/m 10.4 C 11.7 C 1.6 km/h (1 Bft)
01.10.2009 02:00 10.9 C 93 % 1014.4 hPa 0.0 l/m 0.9 km/h (0 Bft) O 0.00 h 0 W/m 9.8 C 10.9 C 1.9 km/h (1 Bft)
01.10.2009 03:00 10.5 C 95 % 1013.9 hPa 0.0 l/m 0.9 km/h (0 Bft) O 0.00 h 0 W/m 9.7 C 10.5 C 2.2 km/h (1 Bft)
01.10.2009 04:00 9.9 C 96 % 1013.8 hPa 0.0 l/m 1.2 km/h (1 Bft) O 0.00 h 0 W/m 9.2 C 9.9 C 2.1 km/h (1 Bft)
01.10.2009 05:00 9.8 C 97 % 1013.9 hPa 0.0 l/m 0.4 km/h (0 Bft) O 0.00 h 0 W/m 9.4 C 9.8 C 1.1 km/h (1 Bft)
01.10.2009 06:00 10.5 C 98 % 1013.9 hPa 0.0 l/m 0.0 km/h (0 Bft) N 0.00 h 0 W/m 10.2 C 10.5 C 0.0 km/h (0 Bft)
01.10.2009 07:00 10.9 C 98 % 1014.1 hPa 0.0 l/m 0.0 km/h (0 Bft) N 0.00 h 8 W/m 10.6 C 10.9 C 0.3 km/h (0 Bft)
01.10.2009 08:00 11.2 C 99 % 1014.6 hPa 0.0 l/m 0.1 km/h (0 Bft) O 0.00 h 27 W/m 11.0 C 11.2 C 0.4 km/h (0 Bft)
01.10.2009 09:00 11.4 C 99 % 1015.2 hPa 0.0 l/m 0.4 km/h (0 Bft) O 0.00 h 78 W/m 11.3 C 11.4 C 1.3 km/h (1 Bft)
01.10.2009 10:00 12.3 C 99 % 1015.4 hPa 0.0 l/m 0.2 km/h (0 Bft) O 0.00 h 149 W/m 12.1 C 12.3 C 1.1 km/h (1 Bft)
01.10.2009 11:00 14.7 C 89 % 1015.3 hPa 0.0 l/m 1.1 km/h (1 Bft) NW 0.85 h 445 W/m 12.9 C 14.7 C 2.8 km/h (1 Bft)
01.10.2009 12:00 17.7 C 75 % 1014.8 hPa 0.0 l/m 1.4 km/h (1 Bft) W-NW 1.00 h 553 W/m 13.1 C 17.7 C 3.3 km/h (1 Bft)
01.10.2009 13:00 20.1 C 61 % 1014.2 hPa 0.0 l/m 7.7 km/h (2 Bft) W 1.00 h 601 W/m 12.4 C 20.1 C 13.0 km/h (3 Bft)
01.10.2009 14:00 20.8 C 55 % 1013.7 hPa 0.0 l/m 9.8 km/h (2 Bft) W-SW 1.00 h 609 W/m 11.4 C 20.8 C 16.3 km/h (3 Bft)
01.10.2009 15:00 21.4 C 48 % 1013.2 hPa 0.0 l/m 11.5 km/h (2 Bft) W 0.98 h 499 W/m 9.9 C 21.4 C 18.5 km/h (3 Bft)
01.10.2009 16:00 21.1 C 46 % 1013.4 hPa 0.0 l/m 9.9 km/h (2 Bft) W 1.00 h 353 W/m 9.0 C 21.1 C 15.4 km/h (3 Bft)
01.10.2009 17:00 20.8 C 48 % 1013.4 hPa 0.0 l/m 8.2 km/h (2 Bft) W 0.93 h 188 W/m 9.3 C 20.8 C 12.6 km/h (3 Bft)
01.10.2009 18:00 19.7 C 53 % 1013.7 hPa 0.0 l/m 4.5 km/h (1 Bft) W-NW 0.03 h 27 W/m 9.8 C 19.7 C 7.2 km/h (2 Bft)
01.10.2009 19:00 17.8 C 61 % 1014.3 hPa 0.0 l/m 0.8 km/h (0 Bft) O-SO 0.00 h 5 W/m 10.1 C 17.8 C 2.0 km/h (1 Bft)
01.10.2009 20:00 15.7 C 68 % 1015.3 hPa 0.0 l/m 1.1 km/h (1 Bft) O 0.00 h 0 W/m 9.8 C 15.7 C 2.7 km/h (1 Bft)
01.10.2009 21:00 14.9 C 73 % 1016.1 hPa 0.0 l/m 0.3 km/h (0 Bft) O 0.00 h 0 W/m 10.1 C 14.9 C 1.1 km/h (1 Bft)
01.10.2009 22:00 14.2 C 77 % 1016.5 hPa 0.0 l/m 0.5 km/h (0 Bft) O 0.00 h 0 W/m 10.2 C 14.2 C 1.5 km/h (1 Bft)
01.10.2009 23:00 13.6 C 80 % 1016.6 hPa 0.0 l/m 0.3 km/h (0 Bft) O 0.00 h 0 W/m 10.2 C 13.6 C 0.9 km/h (0 Bft)
02.10.2009 00:00 13.0 C 83 % 1016.3 hPa 0.0 l/m 0.7 km/h (0 Bft) O 0.00 h 0 W/m 10.2 C 13.0 C 1.8 km/h (1 Bft)
02.10.2009 01:00 12.4 C 86 % 1016.0 hPa 0.0 l/m 0.3 km/h (0 Bft) O 0.00 h 0 W/m 10.0 C 12.4 C 0.7 km/h (0 Bft)
02.10.2009 02:00 11.8 C 87 % 1015.9 hPa 0.0 l/m 0.3 km/h (0 Bft) O 0.00 h 0 W/m 9.8 C 11.8 C 0.8 km/h (0 Bft)
02.10.2009 03:00 11.4 C 90 % 1015.8 hPa 0.0 l/m 0.4 km/h (0 Bft) O 0.00 h 0 W/m 9.8 C 11.4 C 1.1 km/h (1 Bft)
02.10.2009 04:00 10.8 C 93 % 1015.7 hPa 0.0 l/m 0.1 km/h (0 Bft) O 0.00 h 0 W/m 9.7 C 10.8 C 0.7 km/h (0 Bft)
02.10.2009 05:00 10.5 C 94 % 1016.1 hPa 0.0 l/m 0.7 km/h (0 Bft) N 0.00 h 0 W/m 9.6 C 10.5 C 2.0 km/h (1 Bft)
02.10.2009 06:00 10.1 C 94 % 1016.3 hPa 0.0 l/m 0.7 km/h (0 Bft) O-SO 0.00 h 0 W/m 9.2 C 10.1 C 1.8 km/h (1 Bft)
02.10.2009 07:00 9.5 C 94 % 1016.5 hPa 0.0 l/m 0.3 km/h (0 Bft) O-SO 0.03 h 13 W/m 8.5 C 9.5 C 0.7 km/h (0 Bft)
02.10.2009 08:00 9.1 C 95 % 1017.1 hPa 0.0 l/m 0.2 km/h (0 Bft) N-NO 0.40 h 81 W/m 8.4 C 9.1 C 0.7 km/h (0 Bft)
02.10.2009 09:00 11.6 C 90 % 1017.1 hPa 0.0 l/m 1.4 km/h (1 Bft) N 1.00 h 232 W/m 10.0 C 11.6 C 3.3 km/h (1 Bft)
02.10.2009 10:00 13.9 C 80 % 1017.0 hPa 0.0 l/m 1.1 km/h (1 Bft) N 0.93 h 352 W/m 10.4 C 13.9 C 2.6 km/h (1 Bft)
02.10.2009 11:00 15.9 C 73 % 1016.8 hPa 0.0 l/m 1.2 km/h (1 Bft) N-NW 0.98 h 473 W/m 11.0 C 15.9 C 3.1 km/h (1 Bft)
02.10.2009 12:00 17.4 C 61 % 1016.4 hPa 0.0 l/m 9.5 km/h (2 Bft) W-SW 1.00 h 573 W/m 9.7 C 17.4 C 15.3 km/h (3 Bft)
02.10.2009 13:00 17.7 C 58 % 1016.2 hPa 0.0 l/m 10.6 km/h (2 Bft) W 1.00 h 569 W/m 9.5 C 17.7 C 17.4 km/h (3 Bft)
02.10.2009 14:00 17.2 C 57 % 1016.0 hPa 0.0 l/m 12.2 km/h (2 Bft) W 0.30 h 275 W/m 8.6 C 17.2 C 19.3 km/h (3 Bft)
02.10.2009 15:00 17.6 C 53 % 1015.7 hPa 0.0 l/m 11.4 km/h (2 Bft) W 0.95 h 465 W/m 7.9 C 17.6 C 17.9 km/h (3 Bft)
02.10.2009 16:00 17.6 C 52 % 1015.8 hPa 0.0 l/m 9.4 km/h (2 Bft) W 0.72 h 253 W/m 7.5 C 17.6 C 15.2 km/h (3 Bft)
02.10.2009 17:00 16.8 C 55 % 1015.8 hPa 0.0 l/m 6.3 km/h (2 Bft) W-NW 0.25 h 119 W/m 7.7 C 16.8 C 10.2 km/h (2 Bft)
02.10.2009 18:00 16.1 C 56 % 1016.3 hPa 0.0 l/m 9.5 km/h (2 Bft) W 0.07 h 30 W/m 7.2 C 16.1 C 14.7 km/h (3 Bft)
02.10.2009 19:00 14.8 C 59 % 1017.2 hPa 0.0 l/m 9.8 km/h (2 Bft) W-NW 0.00 h 6 W/m 6.8 C 14.8 C 15.8 km/h (3 Bft)
02.10.2009 20:00 13.6 C 64 % 1018.1 hPa 0.0 l/m 5.1 km/h (1 Bft) W 0.00 h 0 W/m 6.8 C 13.6 C 8.8 km/h (2 Bft)
02.10.2009 21:00 12.5 C 69 % 1018.8 hPa 0.0 l/m 1.4 km/h (1 Bft) O-NO 0.00 h 0 W/m 6.9 C 12.5 C 3.5 km/h (1 Bft)
02.10.2009 22:00 11.7 C 73 % 1019.1 hPa 0.0 l/m 0.5 km/h (0 Bft) NO 0.00 h 0 W/m 7.0 C 11.7 C 1.8 km/h (1 Bft)
02.10.2009 23:00 11.1 C 76 % 1019.0 hPa 0.0 l/m 0.5 km/h (0 Bft) O-NO 0.00 h 0 W/m 7.1 C 11.1 C 1.6 km/h (1 Bft)
03.10.2009 00:00 10.8 C 78 % 1018.8 hPa 0.0 l/m 0.2 km/h (0 Bft) O-NO 0.00 h 0 W/m 7.1 C 10.8 C 0.6 km/h (0 Bft)
03.10.2009 01:00 9.6 C 83 % 1019.0 hPa 0.0 l/m 1.2 km/h (1 Bft) O-NO 0.00 h 0 W/m 6.8 C 9.6 C 2.3 km/h (1 Bft)
03.10.2009 02:00 8.5 C 87 % 1019.3 hPa 0.0 l/m 1.1 km/h (1 Bft) O 0.00 h 0 W/m 6.5 C 8.5 C 2.4 km/h (1 Bft)
03.10.2009 03:00 7.7 C 89 % 1018.9 hPa 0.0 l/m 2.1 km/h (1 Bft) O-SO 0.00 h 0 W/m 6.1 C 7.7 C 3.6 km/h (1 Bft)
03.10.2009 04:00 7.1 C 90 % 1018.5 hPa 0.0 l/m 1.3 km/h (1 Bft) O-SO 0.00 h 0 W/m 5.6 C 7.1 C 2.5 km/h (1 Bft)
03.10.2009 05:00 6.3 C 92 % 1018.2 hPa 0.0 l/m 0.6 km/h (0 Bft) O-SO 0.00 h 0 W/m 5.1 C 6.3 C 1.3 km/h (1 Bft)
03.10.2009 06:00 5.6 C 93 % 1017.9 hPa 0.0 l/m 0.7 km/h (0 Bft) O-SO 0.00 h 0 W/m 4.6 C 5.6 C 1.6 km/h (1 Bft)
03.10.2009 07:00 5.3 C 95 % 1018.1 hPa 0.0 l/m 0.9 km/h (0 Bft) O-SO 0.05 h 13 W/m 4.5 C 5.3 C 1.8 km/h (1 Bft)
03.10.2009 08:00 5.6 C 96 % 1018.3 hPa 0.0 l/m 0.2 km/h (0 Bft) O-SO 0.45 h 82 W/m 5.0 C 5.6 C 0.5 km/h (0 Bft)
03.10.2009 09:00 8.4 C 90 % 1018.4 hPa 0.0 l/m 0.0 km/h (0 Bft) N 1.00 h 241 W/m 6.8 C 8.4 C 0.4 km/h (0 Bft)
03.10.2009 10:00 11.7 C 74 % 1018.2 hPa 0.0 l/m 0.2 km/h (0 Bft) O-SO 1.00 h 381 W/m 7.3 C 11.7 C 0.9 km/h (0 Bft)
03.10.2009 11:00 13.9 C 66 % 1017.5 hPa 0.0 l/m 1.2 km/h (1 Bft) O-SO 1.00 h 467 W/m 7.6 C 13.9 C 3.2 km/h (1 Bft)
03.10.2009 12:00 15.7 C 62 % 1016.8 hPa 0.0 l/m 2.4 km/h (1 Bft) W-SW 1.00 h 531 W/m 8.3 C 15.7 C 4.8 km/h (1 Bft)
03.10.2009 13:00 17.3 C 56 % 1016.0 hPa 0.0 l/m 5.2 km/h (1 Bft) W-NW 1.00 h 574 W/m 8.5 C 17.3 C 9.2 km/h (2 Bft)
03.10.2009 14:00 17.7 C 53 % 1015.4 hPa 0.0 l/m 8.7 km/h (2 Bft) W-NW 1.00 h 534 W/m 8.1 C 17.7 C 13.9 km/h (3 Bft)
03.10.2009 15:00 18.7 C 50 % 1014.8 hPa 0.0 l/m 8.9 km/h (2 Bft) W 1.00 h 456 W/m 7.9 C 18.7 C 14.3 km/h (3 Bft)
03.10.2009 16:00 18.1 C 49 % 1014.7 hPa 0.0 l/m 11.4 km/h (2 Bft) W 0.98 h 281 W/m 7.2 C 18.1 C 18.0 km/h (3 Bft)
03.10.2009 17:00 17.9 C 51 % 1014.1 hPa 0.0 l/m 7.5 km/h (2 Bft) W-NW 0.78 h 159 W/m 7.6 C 17.9 C 12.0 km/h (2 Bft)
03.10.2009 18:00 16.8 C 55 % 1014.1 hPa 0.0 l/m 1.4 km/h (1 Bft) W-NW 0.00 h 25 W/m 7.7 C 16.8 C 3.4 km/h (1 Bft)
03.10.2009 19:00 15.1 C 61 % 1014.5 hPa 0.0 l/m 0.7 km/h (0 Bft) SO 0.00 h 0 W/m 7.6 C 15.1 C 1.6 km/h (1 Bft)
03.10.2009 20:00 13.2 C 71 % 1014.8 hPa 0.0 l/m 1.9 km/h (1 Bft) O-NO 0.00 h 0 W/m 8.1 C 13.2 C 3.3 km/h (1 Bft)
03.10.2009 21:00 11.9 C 76 % 1014.8 hPa 0.0 l/m 0.7 km/h (0 Bft) O-SO 0.00 h 0 W/m 7.7 C 11.9 C 1.8 km/h (1 Bft)
03.10.2009 22:00 11.2 C 77 % 1015.1 hPa 0.0 l/m 1.8 km/h (1 Bft) O-SO 0.00 h 0 W/m 7.3 C 11.2 C 3.1 km/h (1 Bft)
03.10.2009 23:00 10.9 C 77 % 1015.2 hPa 0.0 l/m 1.9 km/h (1 Bft) SO 0.00 h 0 W/m 7.0 C 10.9 C 3.5 km/h (1 Bft)
04.10.2009 00:00 11.0 C 76 % 1015.2 hPa 0.0 l/m 1.8 km/h (1 Bft) W-SW 0.00 h 0 W/m 6.9 C 11.0 C 4.3 km/h (1 Bft)
04.10.2009 01:00 11.3 C 75 % 1015.1 hPa 0.0 l/m 1.9 km/h (1 Bft) S-SO 0.00 h 0 W/m 7.1 C 11.3 C 4.2 km/h (1 Bft)
04.10.2009 02:00 10.8 C 78 % 1014.9 hPa 0.0 l/m 0.7 km/h (0 Bft) S-SO 0.00 h 0 W/m 7.0 C 10.8 C 2.7 km/h (1 Bft)
04.10.2009 03:00 9.8 C 83 % 1014.9 hPa 0.0 l/m 1.5 km/h (1 Bft) O-SO 0.00 h 0 W/m 7.0 C 9.8 C 3.4 km/h (1 Bft)
04.10.2009 04:00 9.2 C 87 % 1014.7 hPa 0.0 l/m 2.7 km/h (1 Bft) S-SO 0.00 h 0 W/m 7.1 C 9.1 C 5.0 km/h (1 Bft)
04.10.2009 05:00 9.0 C 88 % 1015.0 hPa 0.0 l/m 3.7 km/h (1 Bft) O-SO 0.00 h 0 W/m 7.1 C 8.8 C 5.9 km/h (2 Bft)
04.10.2009 06:00 9.1 C 88 % 1015.2 hPa 0.0 l/m 6.2 km/h (2 Bft) S-SO 0.00 h 0 W/m 7.1 C 8.4 C 9.2 km/h (2 Bft)
04.10.2009 07:00 9.8 C 85 % 1015.5 hPa 0.0 l/m 2.5 km/h (1 Bft) S-SO 0.00 h 11 W/m 7.3 C 9.7 C 5.2 km/h (1 Bft)
04.10.2009 08:00 10.2 C 83 % 1015.9 hPa 0.0 l/m 1.6 km/h (1 Bft) W-SW 0.38 h 76 W/m 7.5 C 10.2 C 4.0 km/h (1 Bft)
04.10.2009 09:00 13.1 C 73 % 1016.2 hPa 0.0 l/m 8.2 km/h (2 Bft) W 1.00 h 239 W/m 8.5 C 13.1 C 13.4 km/h (3 Bft)
04.10.2009 10:00 14.4 C 66 % 1016.6 hPa 0.0 l/m 14.3 km/h (3 Bft) W 0.92 h 359 W/m 8.1 C 14.4 C 22.4 km/h (4 Bft)
04.10.2009 11:00 15.3 C 63 % 1016.8 hPa 0.0 l/m 12.7 km/h (3 Bft) W 0.98 h 509 W/m 8.2 C 15.3 C 20.4 km/h (4 Bft)
04.10.2009 12:00 15.1 C 63 % 1016.5 hPa 0.0 l/m 13.8 km/h (3 Bft) W 0.22 h 282 W/m 8.1 C 15.1 C 21.9 km/h (4 Bft)
04.10.2009 13:00 15.7 C 61 % 1016.5 hPa 0.0 l/m 15.3 km/h (3 Bft) W 0.85 h 570 W/m 8.1 C 15.7 C 23.1 km/h (4 Bft)
04.10.2009 14:00 16.4 C 59 % 1015.8 hPa 0.0 l/m 14.2 km/h (3 Bft) W 1.00 h 546 W/m 8.4 C 16.4 C 22.0 km/h (4 Bft)
04.10.2009 15:00 16.9 C 58 % 1015.4 hPa 0.0 l/m 13.3 km/h (3 Bft) W 1.00 h 450 W/m 8.5 C 16.9 C 20.7 km/h (4 Bft)
04.10.2009 16:00 17.1 C 56 % 1015.1 hPa 0.0 l/m 13.8 km/h (3 Bft) W 1.00 h 341 W/m 8.3 C 17.1 C 21.3 km/h (4 Bft)
04.10.2009 17:00 16.7 C 55 % 1014.8 hPa 0.0 l/m 15.4 km/h (3 Bft) W 0.93 h 180 W/m 7.6 C 16.7 C 23.2 km/h (4 Bft)
04.10.2009 18:00 16.0 C 56 % 1015.1 hPa 0.0 l/m 12.4 km/h (3 Bft) W 0.10 h 28 W/m 7.2 C 16.0 C 18.8 km/h (3 Bft)
04.10.2009 19:00 14.7 C 61 % 1015.8 hPa 0.0 l/m 8.1 km/h (2 Bft) W 0.00 h 5 W/m 7.3 C 14.7 C 12.8 km/h (3 Bft)
04.10.2009 20:00 13.6 C 66 % 1016.7 hPa 0.0 l/m 6.8 km/h (2 Bft) W 0.00 h 0 W/m 7.4 C 13.6 C 10.8 km/h (2 Bft)
04.10.2009 21:00 12.8 C 69 % 1017.4 hPa 0.0 l/m 5.9 km/h (2 Bft) W 0.00 h 0 W/m 7.2 C 12.8 C 9.5 km/h (2 Bft)
04.10.2009 22:00 11.6 C 73 % 1018.1 hPa 0.0 l/m 0.6 km/h (0 Bft) W-SW 0.00 h 0 W/m 6.9 C 11.6 C 2.4 km/h (1 Bft)
04.10.2009 23:00 10.7 C 77 % 1018.4 hPa 0.0 l/m 1.1 km/h (0 Bft) W-NW 0.00 h 0 W/m 6.8 C 10.7 C 3.0 km/h (1 Bft)
Min-Datum _ 03.10.09 29.09.09 01.10.09 - 28.09.09 - - - 03.10.09 03.10.09 28.09.09
_ Min-Zeit 07:00 16:54 15:15 - 00:00 - - - 06:59 07:02 00:00
Minimum _ 5.1 C 36 % 1013.2 hPa - 0.0 km/h (0 Bft) - - - 4.2 C 5.1 C 0.0 km/h (0 Bft)
Max-Datum _ 28.09.09 29.09.09 28.09.09 29.09.09 04.10.09 - 30.09.09 04.10.09 28.09.09 28.09.09 01.10.09
_ Max-Zeit 15:57 10:32 08:30 08:36 10:56 - 11:40 13:09 14:45 15:57 13:32
Maximum _ 24.3 C 100 % 1025.0 hPa 0.2 l/m 26.1 km/h
W (4 Bft)
- 0.03 h 747 W/m 15.4 C 24.3 C 36.5 km/h
W-SW (5 Bft)
Durchschnitt _ 14.0 C 76 % 1017.7 hPa #0.2 l/m 3.2 km/h (1 Bft) W #54:53 h 284 W/m 9.3 C 14.0 C 5.5 km/h (1 Bft)
© Kaiko 2009